SCSE/LSC METAR and TAF weather

Enter ICAO airport designator
Station Type Date Time Source
SCSE METAR 2024/04/17 18:00 UTC NOAA

SCSE 171800Z 28014KT CAVOK 21/11 Q1011


Station Type Date Time Source
SCSE Decoded METAR 2024/04/17 18:00 UTC NOAA

La Serena, Chile (SCSE) 29-54S 071-12W
Apr 17, 2024 - 02:00 PM EDT / 2024.04.17 1800 UTC
Wind: from the W (280 degrees) at 16 MPH (14 KT):0
Visibility: greater than 7 mile(s):0
Temperature: 69 F (21 C)
Dew Point: 51 F (11 C)
Relative Humidity: 52%
Pressure (altimeter): 29.85 in. Hg (1011 hPa)
ob: SCSE 171800Z 28014KT CAVOK 21/11 Q1011
cycle: 18

Station Type Date Time Source
SCSE TAF 2024/04/17 18:12 UTC NOAA